Kithnos, Greece
Current Conditions -  °F | °C
As of 8:50 PM on Thursday 23 Oct 2014 (Local Time) from LGSO Reporting Station
Few Clouds Few Clouds  
Wind Chill: 66°   Ceiling: Unl
Heat Index: 66°   Visibility: 6mi
Dew Point: 50°   Wind: 16mph
Humidity: 56%   Direction: 260°W
Pressure: 29.74"   Gusts: NA
Location:  37.42°N, 24.43°E
Report Text: LGSO 231750Z 26014KT 9999 FEW018 19/10 Q1007
Loading
Personal Weather Stations






























Interactive Weather Map
Tropical Storm Tracking
New forecast layout! Learn more

10-Day Weather Forecast

Advertisements
Track Severe Weather on mobile